Time;durP1;ratioP1;P1;durP2;ratioP2;P2;SDS_P1;SDS_P2;PMS_P1;PMS_P2;Temp;Humidity;BMP_temperature;BMP_pressure;BME280_temperature;BME280_humidity;BME280_pressure;Samples;Min_cycle;Max_cycle;Signal;HPM_P1;HPM_P2
2021/12/09 00:00:58;;;;;;;;;;;;;;;;;;5035471;28;19925;-82
2021/12/09 00:03:27;;;;;;;;;;;;;;;;;;5035748;28;19928;-83
2021/12/09 00:05:55;;;;;;;;;;;;;;;;;;5034820;28;19929;-83
2021/12/09 00:08:20;;;;;;;;;;;;;;;;;;5018324;28;19930;-83
2021/12/09 00:10:45;;;;;;;;;;;;;;;;;;5035146;28;19987;-83
2021/12/09 00:13:11;;;;;;;;;;;;;;;;;;5035081;28;19925;-83
2021/12/09 00:15:36;;;;;;;;;;;;;;;;;;5034497;28;19975;-81
2021/12/09 00:18:01;;;;;;;;;;;;;;;;;;5035204;28;19925;-82
2021/12/09 00:20:26;;;;;;;;;;;;;;;;;;5034791;28;19913;-83
2021/12/09 00:22:52;;;;;;;;;;;;;;;;;;5034763;28;19964;-82
2021/12/09 00:25:17;;;;;;;;;;;;;;;;;;5034995;28;19932;-82
2021/12/09 00:27:42;;;;;;;;;;;;;;;;;;5017250;28;19940;-83
2021/12/09 00:30:08;;;;;;;;;;;;;;;;;;5034670;28;19931;-83
2021/12/09 00:32:34;;;;;;;;;;;;;;;;;;5034555;28;19932;-83
2021/12/09 00:34:59;;;;;;;;;;;;;;;;;;5034920;28;19921;-83
2021/12/09 00:37:37;;;;;;;;;;;;;;;;;;5027657;28;19972;-84
2021/12/09 00:40:03;;;;;;;;;;;;;;;;;;5027350;28;19955;-85
2021/12/09 00:42:28;;;;;;;;;;;;;;;;;;5016842;28;20012;-83
2021/12/09 00:44:54;;;;;;;;;;;;;;;;;;5033405;28;19921;-83
2021/12/09 00:47:19;;;;;;;;;;;;;;;;;;5033340;28;19931;-83
2021/12/09 00:49:45;;;;;;;;;;;;;;;;;;5034276;28;19917;-84
2021/12/09 00:52:10;;;;;;;;;;;;;;;;;;5034485;28;19921;-84
2021/12/09 00:54:35;;;;;;;;;;;;;;;;;;5000830;28;19928;-84
2021/12/09 00:57:01;;;;;;;;;;;;;;;;;;5017103;28;19921;-83
2021/12/09 00:59:28;;;;;;;;;;;;;;;;;;5016837;28;20016;-84
2021/12/09 01:02:01;;;;;;;;;;;;;;;;;;5034258;28;19920;-84
2021/12/09 01:04:26;;;;;;;;;;;;;;;;;;5014793;28;19928;-84
2021/12/09 01:06:51;;;;;;;;;;;;;;;;;;5030429;28;19996;-84
2021/12/09 01:09:17;;;;;;;;;;;;;;;;;;5033970;28;20047;-84
2021/12/09 01:11:42;;;;;;;;;;;;;;;;;;5034720;28;20317;-84
2021/12/09 01:14:07;;;;;;;;;;;;;;;;;;5033739;28;20257;-83
2021/12/09 01:16:33;;;;;;;;;;;;;;;;;;5033855;28;20273;-84
2021/12/09 01:18:58;;;;;;;;;;;;;;;;;;5016569;28;20449;-85
2021/12/09 01:21:25;;;;;;;;;;;;;;;;;;5033329;28;19929;-85
2021/12/09 01:23:50;;;;;;;;;;;;;;;;;;5033513;28;19921;-84
2021/12/09 01:26:16;;;;;;;;;;;;;;;;;;5033956;28;19988;-85
2021/12/09 01:28:49;;;;;;;;;;;;;;;;;;5033978;28;19932;-84
2021/12/09 01:31:23;;;;;;;;;;;;;;;;;;5017714;28;19921;-84
2021/12/09 01:33:50;;;;;;;;;;;;;;;;;;5017790;28;19987;-84
2021/12/09 01:36:16;;;;;;;;;;;;;;;;;;5016486;28;19931;-84
2021/12/09 01:38:41;;;;;;;;;;;;;;;;;;5030997;28;19925;-84
2021/12/09 01:41:06;;;;;;;;;;;;;;;;;;5034411;28;19978;-84
2021/12/09 01:43:31;;;;;;;;;;;;;;;;;;5016534;28;20299;-84
2021/12/09 01:46:07;;;;;;;;;;;;;;;;;;5016070;28;20246;-84
2021/12/09 01:48:33;;;;;;;;;;;;;;;;;;5033836;28;20003;-84
2021/12/09 01:50:58;;;;;;;;;;;;;;;;;;5016019;28;20344;-86
2021/12/09 01:53:24;;;;;;;;;;;;;;;;;;5016331;28;19949;-82
2021/12/09 01:55:49;;;;;;;;;;;;;;;;;;5033961;28;19971;-82
2021/12/09 01:58:14;;;;;;;;;;;;;;;;;;5016379;28;20410;-83
2021/12/09 02:00:42;;;;;;;;;;;;;;;;;;5033775;28;19931;-83
2021/12/09 02:03:09;;;;;;;;;;;;;;;;;;5033579;28;19967;-83
2021/12/09 02:05:34;;;;;;;;;;;;;;;;;;5033767;28;20354;-83
2021/12/09 02:07:59;;;;;;;;;;;;;;;;;;5033417;28;20011;-84
2021/12/09 02:10:27;;;;;;;;;;;;;;;;;;5016113;28;19925;-83
2021/12/09 02:12:53;;;;;;;;;;;;;;;;;;5016304;28;20239;-83
2021/12/09 02:15:22;;;;;;;;;;;;;;;;;;5016594;28;20008;-83
2021/12/09 02:17:47;;;;;;;;;;;;;;;;;;5017477;28;19929;-83
2021/12/09 02:20:15;;;;;;;;;;;;;;;;;;5032610;28;20309;-83
2021/12/09 02:22:45;;;;;;;;;;;;;;;;;;5034227;28;19932;-83
2021/12/09 02:25:13;;;;;;;;;;;;;;;;;;5024852;28;19925;-83
2021/12/09 02:27:39;;;;;;;;;;;;;;;;;;5034135;28;20293;-84
2021/12/09 02:30:04;;;;;;;;;;;;;;;;;;5037174;28;19925;-84
2021/12/09 02:32:29;;;;;;;;;;;;;;;;;;5020345;28;19921;-84
2021/12/09 02:34:54;;;;;;;;;;;;;;;;;;5037663;28;19921;-84
2021/12/09 02:37:20;;;;;;;;;;;;;;;;;;5036768;28;19932;-84
2021/12/09 02:39:45;;;;;;;;;;;;;;;;;;5019568;28;19921;-83
2021/12/09 02:42:11;;;;;;;;;;;;;;;;;;5036772;28;19948;-83
2021/12/09 02:44:36;;;;;;;;;;;;;;;;;;5036799;28;19928;-83
2021/12/09 02:47:02;;;;;;;;;;;;;;;;;;5036516;28;19933;-85
2021/12/09 02:49:28;;;;;;;;;;;;;;;;;;5036589;28;20051;-84
2021/12/09 02:51:57;;;;;;;;;;;;;;;;;;5024467;28;19921;-83
2021/12/09 02:54:25;;;;;;;;;;;;;;;;;;5022254;28;19932;-84
2021/12/09 02:56:55;;;;;;;;;;;;;;;;;;5036523;28;19940;-83
2021/12/09 02:59:20;;;;;;;;;;;;;;;;;;5019503;28;20400;-83
2021/12/09 03:01:57;;;;;;;;;;;;;;;;;;5014518;28;19960;-83
2021/12/09 03:04:44;;;;;;;;;;;;;;;;;;5035934;28;19929;-82
2021/12/09 03:07:16;;;;;;;;;;;;;;;;;;5035110;28;19932;-83
2021/12/09 03:09:52;;;;;;;;;;;;;;;;;;5036167;28;20032;-83
2021/12/09 03:12:27;;;;;;;;;;;;;;;;;;5020349;28;19929;-83
2021/12/09 03:14:52;;;;;;;;;;;;;;;;;;5036507;28;19975;-83
2021/12/09 03:17:18;;;;;;;;;;;;;;;;;;5036088;28;20336;-83
2021/12/09 03:19:44;;;;;;;;;;;;;;;;;;5036407;28;19921;-83
2021/12/09 03:22:09;;;;;;;;;;;;;;;;;;5036013;28;19932;-84
2021/12/09 03:24:34;;;;;;;;;;;;;;;;;;5017763;28;19921;-83
2021/12/09 03:26:59;;;;;;;;;;;;;;;;;;5019526;28;19960;-83
2021/12/09 03:29:25;;;;;;;;;;;;;;;;;;5001773;28;19961;-83
2021/12/09 03:31:52;;;;;;;;;;;;;;;;;;5018316;28;20389;-83
2021/12/09 03:34:18;;;;;;;;;;;;;;;;;;5017898;28;20023;-83
2021/12/09 03:36:46;;;;;;;;;;;;;;;;;;5018581;28;20027;-83
2021/12/09 03:39:14;;;;;;;;;;;;;;;;;;5035257;28;20352;-84
2021/12/09 03:41:40;;;;;;;;;;;;;;;;;;5018550;28;19917;-84
2021/12/09 03:44:05;;;;;;;;;;;;;;;;;;5036559;28;19931;-84
2021/12/09 03:46:30;;;;;;;;;;;;;;;;;;5018717;28;19917;-84
2021/12/09 03:48:56;;;;;;;;;;;;;;;;;;5035816;28;19983;-83
2021/12/09 03:51:21;;;;;;;;;;;;;;;;;;5036057;28;20270;-83
2021/12/09 03:53:46;;;;;;;;;;;;;;;;;;5036974;28;20338;-83
2021/12/09 03:56:11;;;;;;;;;;;;;;;;;;5036444;28;19971;-83
2021/12/09 03:58:36;;;;;;;;;;;;;;;;;;5046181;28;20398;-84
2021/12/09 04:01:02;;;;;;;;;;;;;;;;;;5020004;28;20374;-85
2021/12/09 04:03:27;;;;;;;;;;;;;;;;;;5002313;28;20020;-86
2021/12/09 04:05:53;;;;;;;;;;;;;;;;;;5036693;28;19921;-83
2021/12/09 04:08:20;;;;;;;;;;;;;;;;;;5022134;28;19936;-85
2021/12/09 04:10:45;;;;;;;;;;;;;;;;;;5036219;28;19928;-86
2021/12/09 04:13:10;;;;;;;;;;;;;;;;;;5034949;28;19921;-84
2021/12/09 04:15:35;;;;;;;;;;;;;;;;;;5027574;28;19939;-84
2021/12/09 04:18:01;;;;;;;;;;;;;;;;;;5035446;28;19940;-84
2021/12/09 04:20:28;;;;;;;;;;;;;;;;;;5018072;28;19921;-85
2021/12/09 04:22:54;;;;;;;;;;;;;;;;;;5035566;28;19987;-84
2021/12/09 04:25:22;;;;;;;;;;;;;;;;;;5034640;28;19925;-83
2021/12/09 04:27:51;;;;;;;;;;;;;;;;;;5034526;28;19932;-85
2021/12/09 04:30:19;;;;;;;;;;;;;;;;;;5017436;28;19921;-83
2021/12/09 04:32:54;;;;;;;;;;;;;;;;;;5017561;28;19964;-84
2021/12/09 04:38:22;;;;;;;;;;;;;;;;;;5034319;28;20381;-84
2021/12/09 04:40:47;;;;;;;;;;;;;;;;;;5034530;28;19929;-83
2021/12/09 04:43:15;;;;;;;;;;;;;;;;;;5034065;28;19979;-84
2021/12/09 04:45:40;;;;;;;;;;;;;;;;;;5034694;28;19921;-82
2021/12/09 04:48:08;;;;;;;;;;;;;;;;;;5034431;28;20405;-83
2021/12/09 04:50:34;;;;;;;;;;;;;;;;;;5033934;28;20004;-85
2021/12/09 04:53:19;;;;;;;;;;;;;;;;;;5033957;28;19925;-84
2021/12/09 04:55:45;;;;;;;;;;;;;;;;;;5019453;28;19925;-84
2021/12/09 04:58:16;;;;;;;;;;;;;;;;;;5033731;28;19921;-84
2021/12/09 05:00:41;;;;;;;;;;;;;;;;;;5014190;28;20412;-84
2021/12/09 05:03:08;;;;;;;;;;;;;;;;;;5026310;28;19925;-84
2021/12/09 05:05:36;;;;;;;;;;;;;;;;;;5033994;28;19929;-83
2021/12/09 05:08:05;;;;;;;;;;;;;;;;;;5017494;28;19921;-84
2021/12/09 05:10:36;;;;;;;;;;;;;;;;;;5017307;28;20354;-82
2021/12/09 05:13:05;;;;;;;;;;;;;;;;;;5001193;28;20270;-84
2021/12/09 05:15:33;;;;;;;;;;;;;;;;;;5001351;28;19921;-84
2021/12/09 05:17:58;;;;;;;;;;;;;;;;;;5017844;28;19920;-84
2021/12/09 05:20:26;;;;;;;;;;;;;;;;;;5034829;28;20051;-84
2021/12/09 05:22:51;;;;;;;;;;;;;;;;;;5036546;28;19932;-84
2021/12/09 05:25:16;;;;;;;;;;;;;;;;;;5034554;28;19921;-88
2021/12/09 05:27:41;;;;;;;;;;;;;;;;;;5038223;28;19921;-84
2021/12/09 05:30:12;;;;;;;;;;;;;;;;;;5034194;28;20004;-83
2021/12/09 05:32:37;;;;;;;;;;;;;;;;;;5034814;28;19931;-84
2021/12/09 05:35:02;;;;;;;;;;;;;;;;;;5033316;28;19921;-83
2021/12/09 05:37:28;;;;;;;;;;;;;;;;;;5053837;28;19931;-83
2021/12/09 05:39:54;;;;;;;;;;;;;;;;;;5037430;28;19971;-82
2021/12/09 05:42:20;;;;;;;;;;;;;;;;;;5034008;28;19936;-83
2021/12/09 05:44:48;;;;;;;;;;;;;;;;;;5033591;28;19921;-84
2021/12/09 05:47:13;;;;;;;;;;;;;;;;;;5033929;28;20014;-83
2021/12/09 05:49:41;;;;;;;;;;;;;;;;;;4986549;28;19988;-82
2021/12/09 05:52:07;;;;;;;;;;;;;;;;;;4996847;28;19921;-82
2021/12/09 05:54:33;;;;;;;;;;;;;;;;;;4996895;28;20247;-82
2021/12/09 05:56:58;;;;;;;;;;;;;;;;;;5002785;28;19932;-82
2021/12/09 05:59:24;;;;;;;;;;;;;;;;;;5016119;28;19943;-82
2021/12/09 06:01:49;;;;;;;;;;;;;;;;;;5034080;28;19925;-82
2021/12/09 06:04:16;;;;;;;;;;;;;;;;;;5037286;28;20254;-83
2021/12/09 06:06:42;;;;;;;;;;;;;;;;;;5020497;28;19972;-81
2021/12/09 06:09:08;;;;;;;;;;;;;;;;;;5037048;28;19953;-82
2021/12/09 06:11:36;;;;;;;;;;;;;;;;;;5019970;28;19944;-83
2021/12/09 06:14:02;;;;;;;;;;;;;;;;;;5005785;28;20003;-84
2021/12/09 06:16:29;;;;;;;;;;;;;;;;;;5036193;28;20290;-83
2021/12/09 06:18:57;;;;;;;;;;;;;;;;;;5032791;28;19921;-83
2021/12/09 06:21:24;;;;;;;;;;;;;;;;;;5037076;28;19967;-83
2021/12/09 06:23:52;;;;;;;;;;;;;;;;;;5037705;28;20016;-83
2021/12/09 06:26:17;;;;;;;;;;;;;;;;;;5037081;28;20357;-83
2021/12/09 06:28:42;;;;;;;;;;;;;;;;;;5036515;28;19921;-83
2021/12/09 06:31:07;;;;;;;;;;;;;;;;;;5037399;28;20215;-83
2021/12/09 06:33:33;;;;;;;;;;;;;;;;;;5037407;28;20007;-83
2021/12/09 06:35:58;;;;;;;;;;;;;;;;;;5037634;28;19935;-82
2021/12/09 06:38:24;;;;;;;;;;;;;;;;;;5037042;28;19932;-83
2021/12/09 06:40:51;;;;;;;;;;;;;;;;;;5037150;28;19917;-83
2021/12/09 06:43:17;;;;;;;;;;;;;;;;;;5021405;28;19921;-83
2021/12/09 06:45:43;;;;;;;;;;;;;;;;;;5036693;28;19921;-83
2021/12/09 06:48:10;;;;;;;;;;;;;;;;;;5024178;28;19928;-83
2021/12/09 06:50:36;;;;;;;;;;;;;;;;;;5026847;28;19925;-83
2021/12/09 06:53:01;;;;;;;;;;;;;;;;;;5037149;28;19921;-83
2021/12/09 06:55:31;;;;;;;;;;;;;;;;;;5036805;28;19984;-83
2021/12/09 06:57:56;;;;;;;;;;;;;;;;;;5036136;28;20262;-83
2021/12/09 07:00:23;;;;;;;;;;;;;;;;;;5036725;28;19948;-83
2021/12/09 07:02:51;;;;;;;;;;;;;;;;;;5019228;28;19921;-83
2021/12/09 07:05:16;;;;;;;;;;;;;;;;;;5018966;28;20321;-81
2021/12/09 07:07:42;;;;;;;;;;;;;;;;;;5036325;28;19916;-83
2021/12/09 07:10:08;;;;;;;;;;;;;;;;;;5036203;28;19968;-83
2021/12/09 07:12:34;;;;;;;;;;;;;;;;;;5035965;28;19935;-83
2021/12/09 07:15:00;;;;;;;;;;;;;;;;;;5036072;28;20007;-84
2021/12/09 07:17:28;;;;;;;;;;;;;;;;;;5036941;28;19972;-84
2021/12/09 07:19:55;;;;;;;;;;;;;;;;;;5036336;28;20242;-84
2021/12/09 07:22:21;;;;;;;;;;;;;;;;;;5036549;28;19932;-83
2021/12/09 07:24:46;;;;;;;;;;;;;;;;;;5036982;28;19917;-83
2021/12/09 07:27:11;;;;;;;;;;;;;;;;;;5035977;28;20343;-83
2021/12/09 07:29:36;;;;;;;;;;;;;;;;;;5035881;28;20203;-83
2021/12/09 07:32:04;;;;;;;;;;;;;;;;;;5036720;28;19944;-82
2021/12/09 07:34:29;;;;;;;;;;;;;;;;;;5019050;28;20354;-81
2021/12/09 07:36:57;;;;;;;;;;;;;;;;;;5018392;28;20019;-82
2021/12/09 07:39:22;;;;;;;;;;;;;;;;;;5035235;28;19979;-82
2021/12/09 07:41:47;;;;;;;;;;;;;;;;;;5018528;28;19925;-83
2021/12/09 07:44:13;;;;;;;;;;;;;;;;;;5035442;28;19975;-83
2021/12/09 07:46:42;;;;;;;;;;;;;;;;;;5036621;28;20112;-82
2021/12/09 07:49:08;;;;;;;;;;;;;;;;;;5037397;28;19921;-83
2021/12/09 07:51:33;;;;;;;;;;;;;;;;;;5035893;28;19932;-83
2021/12/09 07:53:59;;;;;;;;;;;;;;;;;;5035643;28;19978;-83
2021/12/09 07:56:24;;;;;;;;;;;;;;;;;;5023270;28;20390;-83
2021/12/09 07:58:49;;;;;;;;;;;;;;;;;;5035657;28;20043;-84
2021/12/09 08:01:15;;;;;;;;;;;;;;;;;;5036330;28;20302;-83
2021/12/09 08:03:40;;;;;;;;;;;;;;;;;;5019044;28;20338;-83
2021/12/09 08:06:05;;;;;;;;;;;;;;;;;;5018597;28;20241;-83
2021/12/09 08:08:30;;;;;;;;;;;;;;;;;;5035647;28;19937;-83
2021/12/09 08:10:56;;;;;;;;;;;;;;;;;;5035559;28;19971;-84
2021/12/09 08:13:23;;;;;;;;;;;;;;;;;;5035267;28;19971;-84
2021/12/09 08:15:50;;;;;;;;;;;;;;;;;;5035641;28;20012;-84
2021/12/09 08:20:46;;;;;;;;;;;;;;;;;;5023814;28;20405;-83
2021/12/09 08:23:11;;;;;;;;;;;;;;;;;;5035466;28;19921;-84
2021/12/09 08:25:36;;;;;;;;;;;;;;;;;;5033781;28;19917;-85
2021/12/09 08:28:02;;;;;;;;;;;;;;;;;;5029334;28;20220;-84
2021/12/09 08:30:27;;;;;;;;;;;;;;;;;;5034601;28;19983;-85
2021/12/09 08:32:53;;;;;;;;;;;;;;;;;;5023718;28;19920;-85
2021/12/09 08:35:20;;;;;;;;;;;;;;;;;;5041628;28;19921;-83
2021/12/09 08:37:46;;;;;;;;;;;;;;;;;;5037776;28;19920;-85
2021/12/09 08:40:12;;;;;;;;;;;;;;;;;;5050858;28;19924;-83
2021/12/09 08:42:37;;;;;;;;;;;;;;;;;;5034063;28;19921;-84
2021/12/09 08:45:03;;;;;;;;;;;;;;;;;;5017463;28;20359;-83
2021/12/09 08:47:30;;;;;;;;;;;;;;;;;;5017364;28;19921;-83
2021/12/09 08:49:56;;;;;;;;;;;;;;;;;;5000840;28;20251;-83
2021/12/09 08:52:23;;;;;;;;;;;;;;;;;;5034682;28;19931;-83
2021/12/09 08:54:48;;;;;;;;;;;;;;;;;;5034806;28;19935;-83
2021/12/09 08:57:16;;;;;;;;;;;;;;;;;;5026449;28;20012;-83
2021/12/09 08:59:41;;;;;;;;;;;;;;;;;;5034493;28;19921;-83
2021/12/09 09:02:07;;;;;;;;;;;;;;;;;;5017255;28;19931;-83
2021/12/09 09:04:32;;;;;;;;;;;;;;;;;;5034431;28;19963;-82
2021/12/09 09:06:58;;;;;;;;;;;;;;;;;;5016875;28;20321;-83
2021/12/09 09:09:26;;;;;;;;;;;;;;;;;;5016545;28;19934;-82
2021/12/09 09:11:51;;;;;;;;;;;;;;;;;;5016602;28;19921;-82
2021/12/09 09:14:19;;;;;;;;;;;;;;;;;;5016012;28;19928;-83
2021/12/09 09:16:44;;;;;;;;;;;;;;;;;;5033761;28;19921;-83
2021/12/09 09:19:09;;;;;;;;;;;;;;;;;;5033869;28;20239;-83
2021/12/09 09:21:35;;;;;;;;;;;;;;;;;;5033988;28;19932;-83
2021/12/09 09:24:01;;;;;;;;;;;;;;;;;;5036308;28;20364;-82
2021/12/09 09:26:29;;;;;;;;;;;;;;;;;;5018874;28;19928;-83
2021/12/09 09:28:54;;;;;;;;;;;;;;;;;;5034337;28;19964;-83
2021/12/09 09:31:20;;;;;;;;;;;;;;;;;;5033622;28;20026;-82
2021/12/09 09:33:46;;;;;;;;;;;;;;;;;;5034042;28;19990;-80
2021/12/09 09:36:13;;;;;;;;;;;;;;;;;;5016088;28;19929;-81
2021/12/09 09:38:40;;;;;;;;;;;;;;;;;;5035593;28;19948;-81
2021/12/09 09:41:18;;;;;;;;;;;;;;;;;;5024817;28;20342;-83
2021/12/09 09:46:13;;;;;;;;;;;;;;;;;;5031043;28;20019;-82
2021/12/09 09:48:41;;;;;;;;;;;;;;;;;;5027097;28;19935;-83
2021/12/09 09:51:07;;;;;;;;;;;;;;;;;;5041292;28;19968;-82
2021/12/09 09:53:35;;;;;;;;;;;;;;;;;;5036848;28;19929;-83
2021/12/09 09:56:13;;;;;;;;;;;;;;;;;;5032442;28;19921;-84
2021/12/09 09:58:39;;;;;;;;;;;;;;;;;;5023901;28;19921;-83
2021/12/09 10:01:06;;;;;;;;;;;;;;;;;;5040001;28;19921;-84
2021/12/09 10:03:34;;;;;;;;;;;;;;;;;;5038755;28;20075;-85
2021/12/09 10:06:02;;;;;;;;;;;;;;;;;;5015627;28;19932;-83
2021/12/09 10:08:30;;;;;;;;;;;;;;;;;;5027289;28;20074;-83
2021/12/09 10:10:58;;;;;;;;;;;;;;;;;;5024110;28;19921;-83
2021/12/09 10:13:27;;;;;;;;;;;;;;;;;;5034295;28;19921;-82
2021/12/09 10:15:53;;;;;;;;;;;;;;;;;;5016437;28;19951;-83
2021/12/09 10:18:31;;;;;;;;;;;;;;;;;;5033942;28;19921;-84
2021/12/09 10:21:04;;;;;;;;;;;;;;;;;;5034136;28;20357;-81
2021/12/09 10:23:34;;;;;;;;;;;;;;;;;;5016793;28;19925;-84
2021/12/09 10:26:09;;;;;;;;;;;;;;;;;;5016351;28;19928;-85
2021/12/09 10:28:34;;;;;;;;;;;;;;;;;;5016532;28;19921;-83
2021/12/09 10:31:15;;;;;;;;;;;;;;;;;;5016092;28;19921;-83
2021/12/09 10:34:06;;;;;;;;;;;;;;;;;;5016119;28;19925;-83
2021/12/09 10:36:41;;;;;;;;;;;;;;;;;;5034923;28;20254;-84
2021/12/09 10:39:22;;;;;;;;;;;;;;;;;;5033207;28;19921;-82
2021/12/09 10:41:48;;;;;;;;;;;;;;;;;;5032964;28;19960;-93
2021/12/09 10:44:13;;;;;;;;;;;;;;;;;;5012741;28;19984;-87
2021/12/09 10:46:50;;;;;;;;;;;;;;;;;;5029851;28;19944;-88
2021/12/09 10:49:19;;;;;;;;;;;;;;;;;;5036066;28;19929;-89
2021/12/09 10:51:56;;;;;;;;;;;;;;;;;;5036632;28;19921;-88
2021/12/09 10:54:34;;;;;;;;;;;;;;;;;;5037530;28;19931;-88
2021/12/09 10:57:18;;;;;;;;;;;;;;;;;;5021973;28;19951;-85
2021/12/09 10:59:43;;;;;;;;;;;;;;;;;;5037536;28;19921;-88
2021/12/09 11:02:11;;;;;;;;;;;;;;;;;;5038511;28;19936;-88
2021/12/09 11:04:42;;;;;;;;;;;;;;;;;;5025220;28;19940;-87
2021/12/09 11:07:31;;;;;;;;;;;;;;;;;;5018726;28;19929;-84
2021/12/09 11:10:46;;;;;;;;;;;;;;;;;;5032913;28;19929;-87
2021/12/09 11:13:11;;;;;;;;;;;;;;;;;;4969898;28;20452;-85
2021/12/09 11:15:44;;;;;;;;;;;;;;;;;;4953584;28;19927;-85
2021/12/09 11:18:45;;;;;;;;;;;;;;;;;;4963636;28;20102;-83
2021/12/09 11:28:01;;;;;;;;;;;;;;;;;;4965478;28;19966;-82
2021/12/09 11:30:26;;;;;;;;;;;;;;;;;;4963999;28;19934;-83
2021/12/09 11:39:07;;;;;;;;;;;;;;;;;;4949679;28;19957;-82
2021/12/09 11:41:54;;;;;;;;;;;;;;;;;;4947631;28;19933;-83
2021/12/09 11:44:20;;;;;;;;;;;;;;;;;;4972041;28;19937;-84
2021/12/09 11:46:46;;;;;;;;;;;;;;;;;;4974125;28;19922;-84
2021/12/09 11:49:14;;;;;;;;;;;;;;;;;;4958099;28;19922;-85
2021/12/09 11:51:40;;;;;;;;;;;;;;;;;;4956415;28;20303;-83
2021/12/09 11:54:09;;;;;;;;;;;;;;;;;;4955760;28;19926;-81
2021/12/09 11:56:54;;;;;;;;;;;;;;;;;;4942187;29;19962;-81
2021/12/09 12:11:22;;;;;;;;;;;;;;;;;;4919018;29;19922;-84
2021/12/09 12:13:53;;;;;;;;;;;;;;;;;;5009299;28;19921;-84
2021/12/09 12:40:50;;;;;;;;;;;;;;;;;;4936553;29;19998;-81
2021/12/09 12:59:51;;;;;;;;;;;;;;;;;;4812569;29;20015;-86
2021/12/09 13:06:07;;;;;;;;;;;;;;;;;;4811185;29;20574;-82
2021/12/09 13:09:15;;;;;;;;;;;;;;;;;;4822024;29;19929;-83
2021/12/09 13:11:50;;;;;;;;;;;;;;;;;;4803040;29;20016;-89
2021/12/09 13:14:25;;;;;;;;;;;;;;;;;;4803729;29;20016;-87
2021/12/09 13:17:04;;;;;;;;;;;;;;;;;;4810244;29;20011;-87
2021/12/09 13:22:00;;;;;;;;;;;;;;;;;;4896688;29;19924;-86
2021/12/09 13:25:05;;;;;;;;;;;;;;;;;;4896132;29;19919;-86
2021/12/09 13:47:00;;;;;;;;;;;;;;;;;;4999967;28;20517;-82
2021/12/09 13:55:11;;;;;;;;;;;;;;;;;;5034036;28;19921;-83
2021/12/09 13:57:47;;;;;;;;;;;;;;;;;;5034216;28;19917;-80
2021/12/09 14:00:25;;;;;;;;;;;;;;;;;;5017753;28;19921;-81
2021/12/09 14:02:51;;;;;;;;;;;;;;;;;;5033729;28;19925;-81
2021/12/09 14:05:16;;;;;;;;;;;;;;;;;;5034226;28;19921;-82
2021/12/09 14:07:53;;;;;;;;;;;;;;;;;;5033769;28;19979;-82
2021/12/09 14:10:23;;;;;;;;;;;;;;;;;;5034088;28;19921;-82
2021/12/09 14:12:57;;;;;;;;;;;;;;;;;;5028895;28;19932;-81
2021/12/09 14:15:33;;;;;;;;;;;;;;;;;;5012021;28;19932;-82
2021/12/09 14:17:59;;;;;;;;;;;;;;;;;;5009916;28;19913;-82
2021/12/09 14:20:27;;;;;;;;;;;;;;;;;;4997216;28;19921;-81
2021/12/09 14:22:53;;;;;;;;;;;;;;;;;;5011758;28;20024;-83
2021/12/09 14:25:26;;;;;;;;;;;;;;;;;;5036403;28;19921;-83
2021/12/09 14:27:52;;;;;;;;;;;;;;;;;;5037005;28;19921;-86
2021/12/09 14:30:36;;;;;;;;;;;;;;;;;;5038036;28;20012;-85
2021/12/09 14:33:01;;;;;;;;;;;;;;;;;;5036836;28;19929;-82
2021/12/09 14:35:31;;;;;;;;;;;;;;;;;;5020180;28;19933;-84
2021/12/09 14:37:57;;;;;;;;;;;;;;;;;;5037745;28;19929;-87
2021/12/09 14:40:28;;;;;;;;;;;;;;;;;;5038189;28;20028;-84
2021/12/09 14:43:00;;;;;;;;;;;;;;;;;;5022091;28;19982;-86
2021/12/09 14:45:30;;;;;;;;;;;;;;;;;;5020140;28;19948;-85
2021/12/09 14:47:59;;;;;;;;;;;;;;;;;;5037294;28;19983;-85
2021/12/09 14:50:51;;;;;;;;;;;;;;;;;;5026978;28;19929;-84
2021/12/09 14:53:35;;;;;;;;;;;;;;;;;;4963585;29;19923;-85
2021/12/09 14:56:00;;;;;;;;;;;;;;;;;;4958033;29;19930;-85
2021/12/09 14:58:26;;;;;;;;;;;;;;;;;;4957603;29;19922;-85
2021/12/09 15:00:55;;;;;;;;;;;;;;;;;;4938458;29;19934;-83
2021/12/09 15:03:35;;;;;;;;;;;;;;;;;;4944537;29;19923;-84
2021/12/09 15:06:01;;;;;;;;;;;;;;;;;;4962145;28;19926;-83
2021/12/09 15:08:28;;;;;;;;;;;;;;;;;;4951235;28;20017;-85
2021/12/09 15:11:08;;;;;;;;;;;;;;;;;;4948902;29;19922;-85
2021/12/09 15:13:47;;;;;;;;;;;;;;;;;;4947242;29;19923;-83
2021/12/09 15:16:16;;;;;;;;;;;;;;;;;;4953640;29;20436;-85
2021/12/09 15:18:41;;;;;;;;;;;;;;;;;;4948300;29;19957;-84
2021/12/09 15:21:16;;;;;;;;;;;;;;;;;;4931074;28;20586;-84
2021/12/09 15:23:44;;;;;;;;;;;;;;;;;;4948171;28;19923;-84
2021/12/09 15:26:13;;;;;;;;;;;;;;;;;;4947184;29;19927;-85
2021/12/09 15:28:39;;;;;;;;;;;;;;;;;;4949699;28;19923;-83
2021/12/09 15:31:04;;;;;;;;;;;;;;;;;;5027408;28;20015;-83
2021/12/09 15:33:42;;;;;;;;;;;;;;;;;;5018369;28;20059;-84
2021/12/09 15:36:08;;;;;;;;;;;;;;;;;;5033827;28;19932;-82
2021/12/09 15:38:34;;;;;;;;;;;;;;;;;;5035451;28;20358;-84
2021/12/09 15:40:59;;;;;;;;;;;;;;;;;;5034332;28;19917;-85
2021/12/09 15:43:25;;;;;;;;;;;;;;;;;;5033912;28;19921;-85
2021/12/09 15:46:09;;;;;;;;;;;;;;;;;;5035372;28;20377;-84
2021/12/09 15:48:38;;;;;;;;;;;;;;;;;;5025544;28;19932;-84
2021/12/09 15:51:20;;;;;;;;;;;;;;;;;;5031023;28;19932;-84
2021/12/09 16:11:48;;;;;;;;;;;;;;;;;;5034840;28;19932;-88
2021/12/09 16:33:51;;;;;;;;;;;;;;;;;;4963923;28;20102;-83
2021/12/09 16:39:49;;;;;;;;;;;;;;;;;;4966860;28;20359;-84
2021/12/09 16:42:14;;;;;;;;;;;;;;;;;;4972381;28;19937;-85
2021/12/09 16:45:19;;;;;;;;;;;;;;;;;;4955060;28;19922;-85
2021/12/09 16:51:02;;;;;;;;;;;;;;;;;;;;;
2021/12/09 16:59:32;;;;;;;;;;;;;;;;;;4969178;28;19952;-85
2021/12/09 17:02:47;;;;;;;;;;;;;;;;;;4968276;28;20351;-84
2021/12/09 17:12:10;;;;;;;;;;;;;;;;;;4880228;29;20321;-84
2021/12/09 17:23:46;;;;;;;;;;;;;;;;;;4897277;29;19934;-84
2021/12/09 17:26:27;;;;;;;;;;;;;;;;;;4895476;29;20010;-84
2021/12/09 17:29:21;;;;;;;;;;;;;;;;;;4911663;29;19930;-83
2021/12/09 17:37:57;;;;;;;;;;;;;;;;;;4912526;29;20265;-82
2021/12/09 17:40:23;;;;;;;;;;;;;;;;;;4970186;28;20394;-80
2021/12/09 17:42:48;;;;;;;;;;;;;;;;;;4997988;28;19929;-82
2021/12/09 17:45:17;;;;;;;;;;;;;;;;;;4971983;28;19949;-83
2021/12/09 17:47:43;;;;;;;;;;;;;;;;;;4967510;28;19936;-82
2021/12/09 17:50:08;;;;;;;;;;;;;;;;;;4994564;28;19922;-80
2021/12/09 17:52:40;;;;;;;;;;;;;;;;;;4998722;28;19922;-81
2021/12/09 17:55:06;;;;;;;;;;;;;;;;;;4988843;28;19995;-84
2021/12/09 17:57:38;;;;;;;;;;;;;;;;;;5009544;28;20533;-85
2021/12/09 18:00:07;;;;;;;;;;;;;;;;;;5013109;28;19921;-85
2021/12/09 18:02:34;;;;;;;;;;;;;;;;;;5029972;28;19925;-84
2021/12/09 18:05:19;;;;;;;;;;;;;;;;;;5028999;28;19921;-83
2021/12/09 18:07:48;;;;;;;;;;;;;;;;;;5007841;28;20274;-81
2021/12/09 18:10:13;;;;;;;;;;;;;;;;;;5012394;28;19940;-85
2021/12/09 18:12:38;;;;;;;;;;;;;;;;;;4996205;28;19921;-84
2021/12/09 18:15:04;;;;;;;;;;;;;;;;;;5013427;28;19936;-84
2021/12/09 18:17:43;;;;;;;;;;;;;;;;;;5007692;28;19921;-82
2021/12/09 18:20:10;;;;;;;;;;;;;;;;;;5001774;28;19936;-83
2021/12/09 18:22:35;;;;;;;;;;;;;;;;;;4982940;28;19929;-83
2021/12/09 18:25:00;;;;;;;;;;;;;;;;;;5003521;28;19929;-80
2021/12/09 18:27:26;;;;;;;;;;;;;;;;;;4995271;28;19976;-81
2021/12/09 18:29:57;;;;;;;;;;;;;;;;;;4993495;28;19922;-82
2021/12/09 18:32:24;;;;;;;;;;;;;;;;;;4978934;28;19925;-81
2021/12/09 18:34:55;;;;;;;;;;;;;;;;;;4995336;28;20017;-82
2021/12/09 18:37:30;;;;;;;;;;;;;;;;;;5009978;28;20420;-83
2021/12/09 18:39:56;;;;;;;;;;;;;;;;;;5023960;28;19960;-85
2021/12/09 18:42:21;;;;;;;;;;;;;;;;;;5024543;28;20323;-83
2021/12/09 18:44:52;;;;;;;;;;;;;;;;;;5023863;28;20370;-86
2021/12/09 18:47:17;;;;;;;;;;;;;;;;;;5029900;28;19971;-88
2021/12/09 18:49:47;;;;;;;;;;;;;;;;;;5026513;28;19961;-85
2021/12/09 18:52:13;;;;;;;;;;;;;;;;;;5032671;28;19965;-86
2021/12/09 18:54:40;;;;;;;;;;;;;;;;;;5029763;28;20011;-85
2021/12/09 18:57:07;;;;;;;;;;;;;;;;;;5014978;28;20350;-85
2021/12/09 18:59:33;;;;;;;;;;;;;;;;;;5029856;28;19960;-84
2021/12/09 19:01:58;;;;;;;;;;;;;;;;;;5036605;28;20275;-86
2021/12/09 19:04:24;;;;;;;;;;;;;;;;;;5035864;28;19932;-85
2021/12/09 19:07:05;;;;;;;;;;;;;;;;;;5015522;28;19947;-86
2021/12/09 19:09:30;;;;;;;;;;;;;;;;;;5018301;28;19922;-87
2021/12/09 19:11:55;;;;;;;;;;;;;;;;;;5014902;28;19933;-86
2021/12/09 19:14:22;;;;;;;;;;;;;;;;;;5028605;28;20019;-87
2021/12/09 19:16:53;;;;;;;;;;;;;;;;;;5018448;28;19929;-86
2021/12/09 19:19:27;;;;;;;;;;;;;;;;;;5034515;28;19975;-86
2021/12/09 19:21:52;;;;;;;;;;;;;;;;;;5035063;28;20339;-87
2021/12/09 19:24:20;;;;;;;;;;;;;;;;;;5014988;28;19917;-86
2021/12/09 19:26:58;;;;;;;;;;;;;;;;;;5028025;28;19992;-86
2021/12/09 19:29:25;;;;;;;;;;;;;;;;;;5027718;28;20250;-85
2021/12/09 19:31:53;;;;;;;;;;;;;;;;;;5021676;28;20372;-86
2021/12/09 19:34:18;;;;;;;;;;;;;;;;;;5017989;28;20011;-88
2021/12/09 19:36:49;;;;;;;;;;;;;;;;;;5035122;28;19964;-89
2021/12/09 19:39:16;;;;;;;;;;;;;;;;;;5035995;28;20012;-85
2021/12/09 19:41:51;;;;;;;;;;;;;;;;;;5002089;28;19948;-87
2021/12/09 19:44:16;;;;;;;;;;;;;;;;;;5018418;28;19921;-85
2021/12/09 19:46:42;;;;;;;;;;;;;;;;;;5026868;28;19932;-86
2021/12/09 19:49:07;;;;;;;;;;;;;;;;;;5035415;28;19921;-86
2021/12/09 19:51:33;;;;;;;;;;;;;;;;;;5018250;28;19925;-87
2021/12/09 19:54:01;;;;;;;;;;;;;;;;;;5018258;28;20413;-86